sensor_id;sensor_type;location;lat;lon;timestamp;P1;durP1;ratioP1;P2;durP2;ratioP2
41309;SDS011;27057;51.438;-0.010;2023-01-23T00:01:33;93.82;;;38.38;;
41309;SDS011;27057;51.438;-0.010;2023-01-23T00:04:03;92.03;;;39.28;;
41309;SDS011;27057;51.438;-0.010;2023-01-23T00:06:31;119.10;;;45.38;;
41309;SDS011;27057;51.438;-0.010;2023-01-23T00:08:58;115.15;;;43.38;;
41309;SDS011;27057;51.438;-0.010;2023-01-23T00:11:27;101.88;;;42.67;;
41309;SDS011;27057;51.438;-0.010;2023-01-23T00:13:56;94.88;;;38.35;;
41309;SDS011;27057;51.438;-0.010;2023-01-23T00:16:25;95.43;;;37.63;;
41309;SDS011;27057;51.438;-0.010;2023-01-23T00:18:54;102.68;;;40.05;;
41309;SDS011;27057;51.438;-0.010;2023-01-23T00:21:23;95.80;;;37.97;;
41309;SDS011;27057;51.438;-0.010;2023-01-23T00:23:53;111.57;;;41.75;;
41309;SDS011;27057;51.438;-0.010;2023-01-23T00:26:24;127.50;;;42.03;;
41309;SDS011;27057;51.438;-0.010;2023-01-23T00:28:53;90.95;;;37.35;;
41309;SDS011;27057;51.438;-0.010;2023-01-23T00:31:23;91.28;;;39.05;;
41309;SDS011;27057;51.438;-0.010;2023-01-23T00:33:53;90.88;;;38.33;;
41309;SDS011;27057;51.438;-0.010;2023-01-23T00:36:22;92.00;;;37.05;;
41309;SDS011;27057;51.438;-0.010;2023-01-23T00:38:54;92.70;;;38.75;;
41309;SDS011;27057;51.438;-0.010;2023-01-23T00:41:22;96.82;;;38.05;;
41309;SDS011;27057;51.438;-0.010;2023-01-23T00:43:50;81.80;;;36.00;;
41309;SDS011;27057;51.438;-0.010;2023-01-23T00:46:18;94.65;;;38.58;;
41309;SDS011;27057;51.438;-0.010;2023-01-23T00:48:46;94.03;;;37.20;;
41309;SDS011;27057;51.438;-0.010;2023-01-23T00:51:13;96.30;;;36.42;;
41309;SDS011;27057;51.438;-0.010;2023-01-23T00:53:41;104.28;;;39.70;;
41309;SDS011;27057;51.438;-0.010;2023-01-23T00:56:09;101.68;;;40.97;;
41309;SDS011;27057;51.438;-0.010;2023-01-23T00:58:37;101.18;;;41.28;;
41309;SDS011;27057;51.438;-0.010;2023-01-23T01:01:06;94.57;;;39.13;;
41309;SDS011;27057;51.438;-0.010;2023-01-23T01:03:35;97.20;;;37.75;;
41309;SDS011;27057;51.438;-0.010;2023-01-23T01:06:03;88.82;;;38.50;;
41309;SDS011;27057;51.438;-0.010;2023-01-23T01:08:31;104.95;;;39.33;;
41309;SDS011;27057;51.438;-0.010;2023-01-23T01:10:58;95.53;;;37.72;;
41309;SDS011;27057;51.438;-0.010;2023-01-23T01:13:26;89.10;;;35.88;;
41309;SDS011;27057;51.438;-0.010;2023-01-23T01:15:55;94.07;;;39.00;;
41309;SDS011;27057;51.438;-0.010;2023-01-23T01:18:22;89.82;;;39.40;;
41309;SDS011;27057;51.438;-0.010;2023-01-23T01:20:50;80.85;;;33.33;;
41309;SDS011;27057;51.438;-0.010;2023-01-23T01:23:17;88.25;;;34.63;;
41309;SDS011;27057;51.438;-0.010;2023-01-23T01:25:45;76.05;;;30.70;;
41309;SDS011;27057;51.438;-0.010;2023-01-23T01:28:13;75.70;;;34.65;;
41309;SDS011;27057;51.438;-0.010;2023-01-23T01:30:40;84.15;;;34.00;;
41309;SDS011;27057;51.438;-0.010;2023-01-23T01:33:08;93.50;;;37.25;;
41309;SDS011;27057;51.438;-0.010;2023-01-23T01:35:37;75.18;;;33.72;;
41309;SDS011;27057;51.438;-0.010;2023-01-23T01:38:06;87.97;;;34.75;;
41309;SDS011;27057;51.438;-0.010;2023-01-23T01:40:35;82.53;;;36.38;;
41309;SDS011;27057;51.438;-0.010;2023-01-23T01:43:07;85.88;;;34.17;;
41309;SDS011;27057;51.438;-0.010;2023-01-23T01:49:17;83.32;;;35.08;;
41309;SDS011;27057;51.438;-0.010;2023-01-23T01:52:07;96.30;;;36.65;;
41309;SDS011;27057;51.438;-0.010;2023-01-23T01:54:44;72.68;;;35.75;;
41309;SDS011;27057;51.438;-0.010;2023-01-23T01:57:21;82.70;;;33.70;;
41309;SDS011;27057;51.438;-0.010;2023-01-23T01:59:53;73.03;;;32.22;;
41309;SDS011;27057;51.438;-0.010;2023-01-23T02:05:10;91.97;;;36.15;;
41309;SDS011;27057;51.438;-0.010;2023-01-23T02:07:45;80.25;;;34.10;;
41309;SDS011;27057;51.438;-0.010;2023-01-23T02:10:24;95.68;;;34.65;;
41309;SDS011;27057;51.438;-0.010;2023-01-23T02:12:52;77.78;;;34.10;;
41309;SDS011;27057;51.438;-0.010;2023-01-23T02:15:20;77.07;;;35.25;;
41309;SDS011;27057;51.438;-0.010;2023-01-23T02:17:50;90.93;;;36.92;;
41309;SDS011;27057;51.438;-0.010;2023-01-23T02:20:24;94.68;;;35.33;;
41309;SDS011;27057;51.438;-0.010;2023-01-23T02:23:00;84.10;;;34.05;;
41309;SDS011;27057;51.438;-0.010;2023-01-23T02:28:12;78.03;;;32.83;;
41309;SDS011;27057;51.438;-0.010;2023-01-23T02:30:42;91.43;;;34.00;;
41309;SDS011;27057;51.438;-0.010;2023-01-23T02:35:48;91.80;;;35.97;;
41309;SDS011;27057;51.438;-0.010;2023-01-23T02:38:17;84.50;;;34.65;;
41309;SDS011;27057;51.438;-0.010;2023-01-23T02:40:48;78.47;;;33.42;;
41309;SDS011;27057;51.438;-0.010;2023-01-23T02:43:21;76.53;;;31.17;;
41309;SDS011;27057;51.438;-0.010;2023-01-23T02:45:57;86.50;;;34.13;;
41309;SDS011;27057;51.438;-0.010;2023-01-23T02:48:27;76.03;;;30.90;;
41309;SDS011;27057;51.438;-0.010;2023-01-23T02:50:54;76.47;;;31.25;;
41309;SDS011;27057;51.438;-0.010;2023-01-23T02:53:22;78.88;;;31.08;;
41309;SDS011;27057;51.438;-0.010;2023-01-23T02:55:51;64.28;;;27.75;;
41309;SDS011;27057;51.438;-0.010;2023-01-23T02:58:22;76.38;;;31.90;;
41309;SDS011;27057;51.438;-0.010;2023-01-23T03:01:07;70.40;;;30.20;;
41309;SDS011;27057;51.438;-0.010;2023-01-23T03:03:38;72.05;;;31.30;;
41309;SDS011;27057;51.438;-0.010;2023-01-23T03:06:08;69.13;;;28.65;;
41309;SDS011;27057;51.438;-0.010;2023-01-23T03:08:36;79.72;;;30.77;;
41309;SDS011;27057;51.438;-0.010;2023-01-23T03:11:15;65.82;;;28.02;;
41309;SDS011;27057;51.438;-0.010;2023-01-23T03:13:45;69.68;;;29.42;;
41309;SDS011;27057;51.438;-0.010;2023-01-23T03:16:13;62.55;;;28.45;;
41309;SDS011;27057;51.438;-0.010;2023-01-23T03:18:41;69.28;;;27.45;;
41309;SDS011;27057;51.438;-0.010;2023-01-23T03:21:20;54.40;;;25.40;;
41309;SDS011;27057;51.438;-0.010;2023-01-23T03:23:48;58.40;;;20.70;;
41309;SDS011;27057;51.438;-0.010;2023-01-23T03:26:16;54.25;;;22.98;;
41309;SDS011;27057;51.438;-0.010;2023-01-23T03:28:46;70.10;;;23.70;;
41309;SDS011;27057;51.438;-0.010;2023-01-23T03:31:31;67.68;;;26.10;;
41309;SDS011;27057;51.438;-0.010;2023-01-23T03:33:59;60.70;;;25.35;;
41309;SDS011;27057;51.438;-0.010;2023-01-23T03:36:28;65.38;;;26.38;;
41309;SDS011;27057;51.438;-0.010;2023-01-23T03:38:57;55.42;;;24.50;;
41309;SDS011;27057;51.438;-0.010;2023-01-23T03:41:43;59.67;;;23.58;;
41309;SDS011;27057;51.438;-0.010;2023-01-23T03:44:11;44.13;;;20.20;;
41309;SDS011;27057;51.438;-0.010;2023-01-23T03:46:40;46.97;;;20.05;;
41309;SDS011;27057;51.438;-0.010;2023-01-23T03:49:07;55.55;;;22.48;;
41309;SDS011;27057;51.438;-0.010;2023-01-23T03:51:35;46.15;;;18.25;;
41309;SDS011;27057;51.438;-0.010;2023-01-23T03:54:02;46.35;;;20.20;;
41309;SDS011;27057;51.438;-0.010;2023-01-23T03:56:30;52.38;;;23.00;;
41309;SDS011;27057;51.438;-0.010;2023-01-23T03:58:58;50.72;;;21.58;;
41309;SDS011;27057;51.438;-0.010;2023-01-23T04:01:26;39.40;;;18.55;;
41309;SDS011;27057;51.438;-0.010;2023-01-23T04:03:54;44.60;;;17.20;;
41309;SDS011;27057;51.438;-0.010;2023-01-23T04:06:22;35.53;;;17.42;;
41309;SDS011;27057;51.438;-0.010;2023-01-23T04:08:50;38.95;;;16.52;;
41309;SDS011;27057;51.438;-0.010;2023-01-23T04:11:17;44.15;;;18.13;;
41309;SDS011;27057;51.438;-0.010;2023-01-23T04:13:45;45.15;;;19.48;;
41309;SDS011;27057;51.438;-0.010;2023-01-23T04:16:13;43.67;;;19.35;;
41309;SDS011;27057;51.438;-0.010;2023-01-23T04:18:40;43.90;;;19.05;;
41309;SDS011;27057;51.438;-0.010;2023-01-23T04:21:08;55.38;;;22.63;;
41309;SDS011;27057;51.438;-0.010;2023-01-23T04:23:35;52.35;;;22.02;;
41309;SDS011;27057;51.438;-0.010;2023-01-23T04:26:03;44.88;;;21.48;;
41309;SDS011;27057;51.438;-0.010;2023-01-23T04:28:32;53.80;;;23.10;;
41309;SDS011;27057;51.438;-0.010;2023-01-23T04:30:59;59.13;;;23.48;;
41309;SDS011;27057;51.438;-0.010;2023-01-23T04:33:32;51.55;;;20.55;;
41309;SDS011;27057;51.438;-0.010;2023-01-23T04:36:02;58.47;;;23.08;;
41309;SDS011;27057;51.438;-0.010;2023-01-23T04:38:31;63.45;;;23.58;;
41309;SDS011;27057;51.438;-0.010;2023-01-23T04:41:16;52.90;;;23.20;;
41309;SDS011;27057;51.438;-0.010;2023-01-23T04:43:55;63.58;;;24.58;;
41309;SDS011;27057;51.438;-0.010;2023-01-23T04:46:46;49.60;;;21.90;;
41309;SDS011;27057;51.438;-0.010;2023-01-23T04:49:19;51.78;;;21.40;;
41309;SDS011;27057;51.438;-0.010;2023-01-23T04:51:47;56.95;;;23.77;;
41309;SDS011;27057;51.438;-0.010;2023-01-23T04:54:19;76.97;;;26.10;;
41309;SDS011;27057;51.438;-0.010;2023-01-23T04:56:48;54.20;;;22.48;;
41309;SDS011;27057;51.438;-0.010;2023-01-23T04:59:17;49.80;;;22.60;;
41309;SDS011;27057;51.438;-0.010;2023-01-23T05:01:45;57.78;;;23.45;;
41309;SDS011;27057;51.438;-0.010;2023-01-23T05:04:13;57.53;;;25.30;;
41309;SDS011;27057;51.438;-0.010;2023-01-23T05:06:41;65.85;;;23.30;;
41309;SDS011;27057;51.438;-0.010;2023-01-23T05:09:09;53.17;;;22.70;;
41309;SDS011;27057;51.438;-0.010;2023-01-23T05:11:47;51.20;;;21.05;;
41309;SDS011;27057;51.438;-0.010;2023-01-23T05:14:16;52.95;;;24.08;;
41309;SDS011;27057;51.438;-0.010;2023-01-23T05:16:46;46.85;;;20.98;;
41309;SDS011;27057;51.438;-0.010;2023-01-23T05:19:18;49.60;;;21.58;;
41309;SDS011;27057;51.438;-0.010;2023-01-23T05:21:46;47.70;;;21.30;;
41309;SDS011;27057;51.438;-0.010;2023-01-23T05:24:16;51.38;;;19.27;;
41309;SDS011;27057;51.438;-0.010;2023-01-23T05:26:44;53.03;;;20.73;;
41309;SDS011;27057;51.438;-0.010;2023-01-23T05:29:12;50.60;;;20.15;;
41309;SDS011;27057;51.438;-0.010;2023-01-23T05:31:50;51.90;;;22.38;;
41309;SDS011;27057;51.438;-0.010;2023-01-23T05:34:40;56.83;;;22.35;;
41309;SDS011;27057;51.438;-0.010;2023-01-23T05:37:26;52.35;;;21.10;;
41309;SDS011;27057;51.438;-0.010;2023-01-23T05:40:00;55.60;;;24.42;;
41309;SDS011;27057;51.438;-0.010;2023-01-23T05:42:48;55.33;;;24.42;;
41309;SDS011;27057;51.438;-0.010;2023-01-23T05:45:38;59.78;;;26.13;;
41309;SDS011;27057;51.438;-0.010;2023-01-23T05:48:11;60.47;;;26.58;;
41309;SDS011;27057;51.438;-0.010;2023-01-23T05:50:40;62.92;;;26.17;;
41309;SDS011;27057;51.438;-0.010;2023-01-23T05:53:07;57.10;;;27.10;;
41309;SDS011;27057;51.438;-0.010;2023-01-23T05:55:36;60.53;;;26.95;;
41309;SDS011;27057;51.438;-0.010;2023-01-23T05:58:07;60.90;;;24.70;;
41309;SDS011;27057;51.438;-0.010;2023-01-23T06:00:54;53.35;;;22.48;;
41309;SDS011;27057;51.438;-0.010;2023-01-23T06:03:40;61.83;;;23.50;;
41309;SDS011;27057;51.438;-0.010;2023-01-23T06:06:33;45.47;;;19.27;;
41309;SDS011;27057;51.438;-0.010;2023-01-23T06:09:01;43.35;;;18.83;;
41309;SDS011;27057;51.438;-0.010;2023-01-23T06:11:29;53.35;;;21.05;;
41309;SDS011;27057;51.438;-0.010;2023-01-23T06:13:56;61.35;;;21.00;;
41309;SDS011;27057;51.438;-0.010;2023-01-23T06:16:24;47.00;;;18.08;;
41309;SDS011;27057;51.438;-0.010;2023-01-23T06:18:51;54.15;;;21.48;;
41309;SDS011;27057;51.438;-0.010;2023-01-23T06:21:19;57.90;;;23.83;;
41309;SDS011;27057;51.438;-0.010;2023-01-23T06:23:47;61.97;;;24.48;;
41309;SDS011;27057;51.438;-0.010;2023-01-23T06:26:15;62.00;;;27.02;;
41309;SDS011;27057;51.438;-0.010;2023-01-23T06:28:43;43.42;;;20.50;;
41309;SDS011;27057;51.438;-0.010;2023-01-23T06:31:11;47.95;;;19.67;;
41309;SDS011;27057;51.438;-0.010;2023-01-23T06:33:49;53.58;;;21.52;;
41309;SDS011;27057;51.438;-0.010;2023-01-23T06:36:20;49.33;;;19.42;;
41309;SDS011;27057;51.438;-0.010;2023-01-23T06:38:48;57.53;;;21.08;;
41309;SDS011;27057;51.438;-0.010;2023-01-23T06:41:20;47.17;;;19.38;;
41309;SDS011;27057;51.438;-0.010;2023-01-23T06:43:50;38.67;;;17.00;;
41309;SDS011;27057;51.438;-0.010;2023-01-23T06:46:23;42.08;;;19.10;;
41309;SDS011;27057;51.438;-0.010;2023-01-23T06:48:52;45.70;;;19.55;;
41309;SDS011;27057;51.438;-0.010;2023-01-23T06:51:21;46.00;;;18.23;;
41309;SDS011;27057;51.438;-0.010;2023-01-23T06:53:48;36.08;;;18.95;;
41309;SDS011;27057;51.438;-0.010;2023-01-23T06:56:16;39.47;;;17.25;;
41309;SDS011;27057;51.438;-0.010;2023-01-23T06:58:44;37.05;;;17.30;;
41309;SDS011;27057;51.438;-0.010;2023-01-23T07:01:29;35.22;;;15.65;;
41309;SDS011;27057;51.438;-0.010;2023-01-23T07:06:45;41.22;;;14.30;;
41309;SDS011;27057;51.438;-0.010;2023-01-23T07:09:15;27.40;;;12.77;;
41309;SDS011;27057;51.438;-0.010;2023-01-23T07:11:49;28.33;;;13.35;;
41309;SDS011;27057;51.438;-0.010;2023-01-23T07:14:17;39.28;;;14.00;;
41309;SDS011;27057;51.438;-0.010;2023-01-23T07:16:46;36.25;;;13.82;;
41309;SDS011;27057;51.438;-0.010;2023-01-23T07:19:15;31.35;;;15.30;;
41309;SDS011;27057;51.438;-0.010;2023-01-23T07:21:42;36.55;;;16.10;;
41309;SDS011;27057;51.438;-0.010;2023-01-23T07:24:13;35.03;;;16.23;;
41309;SDS011;27057;51.438;-0.010;2023-01-23T07:26:41;45.28;;;16.50;;
41309;SDS011;27057;51.438;-0.010;2023-01-23T07:29:08;40.78;;;17.42;;
41309;SDS011;27057;51.438;-0.010;2023-01-23T07:31:36;44.75;;;20.52;;
41309;SDS011;27057;51.438;-0.010;2023-01-23T07:34:04;56.60;;;24.15;;
41309;SDS011;27057;51.438;-0.010;2023-01-23T07:36:31;50.40;;;20.88;;
41309;SDS011;27057;51.438;-0.010;2023-01-23T07:38:59;44.47;;;22.30;;
41309;SDS011;27057;51.438;-0.010;2023-01-23T07:41:26;44.60;;;19.48;;
41309;SDS011;27057;51.438;-0.010;2023-01-23T07:43:56;65.53;;;25.65;;
41309;SDS011;27057;51.438;-0.010;2023-01-23T07:46:23;58.90;;;24.20;;
41309;SDS011;27057;51.438;-0.010;2023-01-23T07:48:52;69.07;;;26.92;;
41309;SDS011;27057;51.438;-0.010;2023-01-23T07:51:21;74.57;;;32.17;;
41309;SDS011;27057;51.438;-0.010;2023-01-23T07:53:49;86.53;;;32.38;;
41309;SDS011;27057;51.438;-0.010;2023-01-23T07:56:16;83.88;;;29.65;;
41309;SDS011;27057;51.438;-0.010;2023-01-23T07:58:47;73.53;;;28.70;;
41309;SDS011;27057;51.438;-0.010;2023-01-23T08:01:16;70.05;;;30.58;;
41309;SDS011;27057;51.438;-0.010;2023-01-23T08:03:45;63.40;;;26.80;;
41309;SDS011;27057;51.438;-0.010;2023-01-23T08:06:14;74.68;;;26.77;;
41309;SDS011;27057;51.438;-0.010;2023-01-23T08:08:41;64.85;;;24.02;;
41309;SDS011;27057;51.438;-0.010;2023-01-23T08:11:08;61.25;;;22.50;;
41309;SDS011;27057;51.438;-0.010;2023-01-23T08:13:38;58.55;;;23.50;;
41309;SDS011;27057;51.438;-0.010;2023-01-23T08:16:06;65.38;;;25.55;;
41309;SDS011;27057;51.438;-0.010;2023-01-23T08:18:33;63.30;;;28.00;;
41309;SDS011;27057;51.438;-0.010;2023-01-23T08:21:01;79.78;;;30.88;;
41309;SDS011;27057;51.438;-0.010;2023-01-23T08:23:30;72.28;;;28.48;;
41309;SDS011;27057;51.438;-0.010;2023-01-23T08:26:00;71.00;;;26.83;;
41309;SDS011;27057;51.438;-0.010;2023-01-23T08:28:30;73.40;;;29.10;;
41309;SDS011;27057;51.438;-0.010;2023-01-23T08:31:01;62.50;;;28.27;;
41309;SDS011;27057;51.438;-0.010;2023-01-23T08:33:33;59.92;;;25.63;;
41309;SDS011;27057;51.438;-0.010;2023-01-23T08:36:01;65.30;;;29.83;;
41309;SDS011;27057;51.438;-0.010;2023-01-23T08:38:30;81.07;;;34.42;;
41309;SDS011;27057;51.438;-0.010;2023-01-23T08:40:59;77.63;;;29.48;;
41309;SDS011;27057;51.438;-0.010;2023-01-23T08:43:27;80.38;;;33.05;;
41309;SDS011;27057;51.438;-0.010;2023-01-23T08:45:56;73.72;;;31.15;;
41309;SDS011;27057;51.438;-0.010;2023-01-23T08:48:24;66.53;;;26.58;;
41309;SDS011;27057;51.438;-0.010;2023-01-23T08:50:59;64.93;;;25.30;;
41309;SDS011;27057;51.438;-0.010;2023-01-23T08:53:31;69.85;;;28.25;;
41309;SDS011;27057;51.438;-0.010;2023-01-23T08:56:00;58.38;;;23.40;;
41309;SDS011;27057;51.438;-0.010;2023-01-23T08:58:32;68.88;;;25.08;;
41309;SDS011;27057;51.438;-0.010;2023-01-23T09:01:00;61.83;;;27.55;;
41309;SDS011;27057;51.438;-0.010;2023-01-23T09:03:28;76.82;;;30.40;;
41309;SDS011;27057;51.438;-0.010;2023-01-23T09:05:59;61.97;;;27.40;;
41309;SDS011;27057;51.438;-0.010;2023-01-23T09:08:27;71.22;;;27.98;;
41309;SDS011;27057;51.438;-0.010;2023-01-23T09:11:01;76.30;;;30.02;;
41309;SDS011;27057;51.438;-0.010;2023-01-23T09:13:33;61.60;;;27.70;;
41309;SDS011;27057;51.438;-0.010;2023-01-23T09:16:01;63.60;;;28.42;;
41309;SDS011;27057;51.438;-0.010;2023-01-23T09:18:29;70.03;;;26.92;;
41309;SDS011;27057;51.438;-0.010;2023-01-23T09:20:57;56.88;;;27.02;;
41309;SDS011;27057;51.438;-0.010;2023-01-23T09:23:24;62.03;;;26.55;;
41309;SDS011;27057;51.438;-0.010;2023-01-23T09:25:52;69.25;;;27.85;;
41309;SDS011;27057;51.438;-0.010;2023-01-23T09:28:19;68.35;;;28.38;;
41309;SDS011;27057;51.438;-0.010;2023-01-23T09:30:47;73.43;;;28.15;;
41309;SDS011;27057;51.438;-0.010;2023-01-23T09:33:14;66.45;;;27.27;;
41309;SDS011;27057;51.438;-0.010;2023-01-23T09:35:42;74.60;;;29.67;;
41309;SDS011;27057;51.438;-0.010;2023-01-23T09:38:13;62.72;;;29.17;;
41309;SDS011;27057;51.438;-0.010;2023-01-23T09:40:45;71.40;;;30.65;;
41309;SDS011;27057;51.438;-0.010;2023-01-23T09:45:56;79.63;;;29.15;;
41309;SDS011;27057;51.438;-0.010;2023-01-23T09:48:37;66.00;;;29.23;;
41309;SDS011;27057;51.438;-0.010;2023-01-23T09:51:49;83.85;;;33.08;;
41309;SDS011;27057;51.438;-0.010;2023-01-23T09:57:27;78.70;;;32.10;;
41309;SDS011;27057;51.438;-0.010;2023-01-23T10:03:13;83.82;;;32.30;;
41309;SDS011;27057;51.438;-0.010;2023-01-23T10:05:47;72.85;;;34.42;;
41309;SDS011;27057;51.438;-0.010;2023-01-23T10:08:40;99.35;;;37.88;;
41309;SDS011;27057;51.438;-0.010;2023-01-23T10:13:53;91.35;;;38.22;;
41309;SDS011;27057;51.438;-0.010;2023-01-23T10:25:10;102.95;;;44.35;;
41309;SDS011;27057;51.438;-0.010;2023-01-23T10:27:46;95.95;;;42.50;;
41309;SDS011;27057;51.438;-0.010;2023-01-23T10:30:25;105.82;;;46.38;;
41309;SDS011;27057;51.438;-0.010;2023-01-23T10:33:15;117.03;;;49.03;;
41309;SDS011;27057;51.438;-0.010;2023-01-23T10:38:22;112.53;;;52.17;;
41309;SDS011;27057;51.438;-0.010;2023-01-23T10:41:02;115.43;;;50.33;;
41309;SDS011;27057;51.438;-0.010;2023-01-23T10:43:40;120.53;;;54.28;;
41309;SDS011;27057;51.438;-0.010;2023-01-23T10:46:16;130.15;;;55.20;;
41309;SDS011;27057;51.438;-0.010;2023-01-23T10:48:49;103.13;;;50.03;;
41309;SDS011;27057;51.438;-0.010;2023-01-23T10:51:43;112.20;;;51.03;;
41309;SDS011;27057;51.438;-0.010;2023-01-23T10:59:36;135.90;;;53.90;;
41309;SDS011;27057;51.438;-0.010;2023-01-23T11:02:17;118.22;;;53.13;;
41309;SDS011;27057;51.438;-0.010;2023-01-23T11:04:56;127.43;;;53.90;;
41309;SDS011;27057;51.438;-0.010;2023-01-23T11:07:25;110.90;;;51.33;;
41309;SDS011;27057;51.438;-0.010;2023-01-23T11:10:01;131.88;;;54.90;;
41309;SDS011;27057;51.438;-0.010;2023-01-23T11:12:47;116.78;;;54.03;;
41309;SDS011;27057;51.438;-0.010;2023-01-23T11:15:25;125.38;;;53.40;;
41309;SDS011;27057;51.438;-0.010;2023-01-23T11:17:55;121.18;;;55.17;;
41309;SDS011;27057;51.438;-0.010;2023-01-23T11:23:17;129.30;;;54.05;;
41309;SDS011;27057;51.438;-0.010;2023-01-23T11:25:46;119.47;;;52.72;;
41309;SDS011;27057;51.438;-0.010;2023-01-23T11:28:31;117.07;;;52.38;;
41309;SDS011;27057;51.438;-0.010;2023-01-23T11:33:56;111.95;;;53.05;;
41309;SDS011;27057;51.438;-0.010;2023-01-23T11:36:49;118.18;;;52.70;;
41309;SDS011;27057;51.438;-0.010;2023-01-23T11:42:26;92.03;;;45.28;;
41309;SDS011;27057;51.438;-0.010;2023-01-23T11:44:55;105.03;;;48.13;;
41309;SDS011;27057;51.438;-0.010;2023-01-23T11:50:46;102.43;;;46.72;;
41309;SDS011;27057;51.438;-0.010;2023-01-23T11:53:30;97.43;;;44.28;;
41309;SDS011;27057;51.438;-0.010;2023-01-23T12:02:19;98.93;;;47.70;;
41309;SDS011;27057;51.438;-0.010;2023-01-23T12:05:22;93.95;;;43.83;;
41309;SDS011;27057;51.438;-0.010;2023-01-23T12:11:13;84.63;;;41.80;;
41309;SDS011;27057;51.438;-0.010;2023-01-23T12:42:23;77.60;;;38.45;;
41309;SDS011;27057;51.438;-0.010;2023-01-23T12:45:02;80.18;;;36.88;;
41309;SDS011;27057;51.438;-0.010;2023-01-23T12:47:46;72.90;;;35.85;;
41309;SDS011;27057;51.438;-0.010;2023-01-23T12:53:17;75.97;;;35.38;;
41309;SDS011;27057;51.438;-0.010;2023-01-23T12:56:04;73.25;;;35.17;;
41309;SDS011;27057;51.438;-0.010;2023-01-23T12:58:41;64.75;;;31.13;;
41309;SDS011;27057;51.438;-0.010;2023-01-23T13:01:27;63.13;;;30.98;;
41309;SDS011;27057;51.438;-0.010;2023-01-23T13:07:00;61.97;;;26.77;;
41309;SDS011;27057;51.438;-0.010;2023-01-23T13:12:31;45.20;;;21.45;;
41309;SDS011;27057;51.438;-0.010;2023-01-23T13:18:00;50.60;;;23.20;;
41309;SDS011;27057;51.438;-0.010;2023-01-23T13:20:50;58.17;;;22.98;;
41309;SDS011;27057;51.438;-0.010;2023-01-23T13:23:42;32.20;;;13.32;;
41309;SDS011;27057;51.438;-0.010;2023-01-23T13:31:31;22.42;;;9.80;;
41309;SDS011;27057;51.438;-0.010;2023-01-23T13:34:02;19.85;;;9.55;;
41309;SDS011;27057;51.438;-0.010;2023-01-23T13:36:52;26.48;;;7.80;;
41309;SDS011;27057;51.438;-0.010;2023-01-23T13:39:25;24.63;;;9.30;;
41309;SDS011;27057;51.438;-0.010;2023-01-23T13:47:46;15.32;;;9.20;;
41309;SDS011;27057;51.438;-0.010;2023-01-23T13:51:04;21.40;;;9.68;;
41309;SDS011;27057;51.438;-0.010;2023-01-23T13:54:01;20.15;;;8.73;;
41309;SDS011;27057;51.438;-0.010;2023-01-23T13:57:02;23.02;;;9.45;;
41309;SDS011;27057;51.438;-0.010;2023-01-23T13:59:46;18.73;;;9.05;;
41309;SDS011;27057;51.438;-0.010;2023-01-23T14:02:38;32.05;;;10.00;;
41309;SDS011;27057;51.438;-0.010;2023-01-23T14:05:42;21.10;;;9.27;;
41309;SDS011;27057;51.438;-0.010;2023-01-23T14:08:23;20.63;;;9.02;;
41309;SDS011;27057;51.438;-0.010;2023-01-23T14:11:12;26.65;;;10.07;;
41309;SDS011;27057;51.438;-0.010;2023-01-23T14:13:59;17.90;;;9.13;;
41309;SDS011;27057;51.438;-0.010;2023-01-23T14:17:00;21.77;;;9.63;;
41309;SDS011;27057;51.438;-0.010;2023-01-23T14:20:00;28.20;;;10.90;;
41309;SDS011;27057;51.438;-0.010;2023-01-23T14:22:45;28.40;;;8.88;;
41309;SDS011;27057;51.438;-0.010;2023-01-23T14:25:13;16.45;;;7.70;;
41309;SDS011;27057;51.438;-0.010;2023-01-23T14:27:44;20.65;;;9.95;;
41309;SDS011;27057;51.438;-0.010;2023-01-23T14:30:21;21.13;;;8.07;;
41309;SDS011;27057;51.438;-0.010;2023-01-23T14:32:56;18.95;;;8.40;;
41309;SDS011;27057;51.438;-0.010;2023-01-23T14:35:26;22.08;;;8.35;;
41309;SDS011;27057;51.438;-0.010;2023-01-23T14:38:04;24.13;;;10.75;;
41309;SDS011;27057;51.438;-0.010;2023-01-23T14:40:33;24.85;;;8.98;;
41309;SDS011;27057;51.438;-0.010;2023-01-23T14:43:17;17.65;;;7.60;;
41309;SDS011;27057;51.438;-0.010;2023-01-23T14:45:48;22.40;;;10.57;;
41309;SDS011;27057;51.438;-0.010;2023-01-23T14:48:22;21.88;;;9.30;;
41309;SDS011;27057;51.438;-0.010;2023-01-23T14:50:59;23.20;;;8.65;;
41309;SDS011;27057;51.438;-0.010;2023-01-23T14:53:58;21.13;;;9.57;;
41309;SDS011;27057;51.438;-0.010;2023-01-23T14:56:29;25.27;;;9.05;;
41309;SDS011;27057;51.438;-0.010;2023-01-23T14:59:02;27.05;;;9.88;;
41309;SDS011;27057;51.438;-0.010;2023-01-23T15:01:41;25.92;;;9.35;;
41309;SDS011;27057;51.438;-0.010;2023-01-23T15:04:18;14.63;;;8.55;;
41309;SDS011;27057;51.438;-0.010;2023-01-23T15:06:53;22.65;;;10.18;;
41309;SDS011;27057;51.438;-0.010;2023-01-23T15:09:27;21.63;;;12.65;;
41309;SDS011;27057;51.438;-0.010;2023-01-23T15:12:04;18.85;;;8.57;;
41309;SDS011;27057;51.438;-0.010;2023-01-23T15:14:36;15.07;;;8.43;;
41309;SDS011;27057;51.438;-0.010;2023-01-23T15:17:26;24.73;;;9.93;;
41309;SDS011;27057;51.438;-0.010;2023-01-23T15:19:53;21.67;;;8.77;;
41309;SDS011;27057;51.438;-0.010;2023-01-23T15:22:27;19.52;;;8.85;;
41309;SDS011;27057;51.438;-0.010;2023-01-23T15:24:56;21.90;;;9.55;;
41309;SDS011;27057;51.438;-0.010;2023-01-23T15:27:42;28.58;;;10.05;;
41309;SDS011;27057;51.438;-0.010;2023-01-23T15:30:29;22.88;;;9.18;;
41309;SDS011;27057;51.438;-0.010;2023-01-23T15:32:59;25.92;;;9.65;;
41309;SDS011;27057;51.438;-0.010;2023-01-23T15:35:33;26.48;;;10.20;;
41309;SDS011;27057;51.438;-0.010;2023-01-23T15:38:01;26.73;;;10.60;;
41309;SDS011;27057;51.438;-0.010;2023-01-23T15:40:35;20.65;;;9.77;;
41309;SDS011;27057;51.438;-0.010;2023-01-23T15:43:05;23.00;;;9.40;;
41309;SDS011;27057;51.438;-0.010;2023-01-23T15:45:41;27.70;;;9.70;;
41309;SDS011;27057;51.438;-0.010;2023-01-23T15:48:09;27.33;;;10.98;;
41309;SDS011;27057;51.438;-0.010;2023-01-23T15:50:36;26.88;;;10.73;;
41309;SDS011;27057;51.438;-0.010;2023-01-23T15:53:08;19.83;;;10.90;;
41309;SDS011;27057;51.438;-0.010;2023-01-23T15:55:38;20.48;;;10.57;;
41309;SDS011;27057;51.438;-0.010;2023-01-23T15:58:08;21.85;;;10.23;;
41309;SDS011;27057;51.438;-0.010;2023-01-23T16:00:40;28.95;;;10.32;;
41309;SDS011;27057;51.438;-0.010;2023-01-23T16:03:08;30.00;;;11.35;;
41309;SDS011;27057;51.438;-0.010;2023-01-23T16:05:36;30.65;;;13.20;;
41309;SDS011;27057;51.438;-0.010;2023-01-23T16:08:04;30.48;;;12.18;;
41309;SDS011;27057;51.438;-0.010;2023-01-23T16:10:39;29.48;;;12.25;;
41309;SDS011;27057;51.438;-0.010;2023-01-23T16:13:08;38.80;;;13.30;;
41309;SDS011;27057;51.438;-0.010;2023-01-23T16:15:38;52.35;;;19.80;;
41309;SDS011;27057;51.438;-0.010;2023-01-23T16:18:05;35.72;;;14.50;;
41309;SDS011;27057;51.438;-0.010;2023-01-23T16:20:34;28.98;;;12.25;;
41309;SDS011;27057;51.438;-0.010;2023-01-23T16:23:12;21.30;;;10.15;;
41309;SDS011;27057;51.438;-0.010;2023-01-23T16:25:47;42.00;;;13.93;;
41309;SDS011;27057;51.438;-0.010;2023-01-23T16:28:17;25.02;;;10.63;;
41309;SDS011;27057;51.438;-0.010;2023-01-23T16:30:49;22.88;;;9.98;;
41309;SDS011;27057;51.438;-0.010;2023-01-23T16:33:18;34.65;;;13.13;;
41309;SDS011;27057;51.438;-0.010;2023-01-23T16:35:47;41.90;;;14.02;;
41309;SDS011;27057;51.438;-0.010;2023-01-23T16:38:23;27.05;;;11.65;;